Time;durP1;ratioP1;P1;durP2;ratioP2;P2;SDS_P1;SDS_P2;PMS_P1;PMS_P2;Temp;Humidity;BMP_temperature;BMP_pressure;BME280_temperature;BME280_humidity;BME280_pressure;Samples;Min_cycle;Max_cycle;Signal;HPM_P1;HPM_P2
2024/04/01 00:00:31;;;;;;;7.43;5.25;;;;;;;9.42;100.00;99298.03;5066677;28;20040;-82
2024/04/01 00:02:56;;;;;;;7.40;6.00;;;;;;;9.43;100.00;99293.69;5057464;28;20101;-82
2024/04/01 00:05:21;;;;;;;5.75;5.07;;;;;;;9.42;100.00;99282.34;5061126;28;20028;-82
2024/04/01 00:07:49;;;;;;;6.43;5.80;;;;;;;9.43;100.00;99268.38;5074380;28;20319;-81
2024/04/01 00:10:14;;;;;;;6.10;5.50;;;;;;;9.43;100.00;99270.16;5056390;28;20116;-82
2024/04/01 00:12:40;;;;;;;8.63;5.00;;;;;;;9.41;100.00;99273.69;5063832;28;20036;-82
2024/04/01 00:15:05;;;;;;;5.93;5.43;;;;;;;9.41;100.00;99278.91;5075784;28;20529;-82
2024/04/01 00:17:31;;;;;;;5.90;5.20;;;;;;;9.40;100.00;99276.38;5057183;28;20107;-82
2024/04/01 00:19:56;;;;;;;5.75;5.22;;;;;;;9.39;100.00;99280.78;5057449;28;20056;-82
2024/04/01 00:22:21;;;;;;;6.28;5.68;;;;;;;9.40;100.00;99290.31;5073381;28;20031;-82
2024/04/01 00:24:47;;;;;;;6.03;5.45;;;;;;;9.39;100.00;99286.00;5066103;28;20067;-82
2024/04/01 00:27:13;;;;;;;6.63;5.60;;;;;;;9.39;100.00;99291.25;5059289;28;20089;-82
2024/04/01 00:29:38;;;;;;;7.55;5.68;;;;;;;9.38;100.00;99281.72;5060565;28;20059;-82
2024/04/01 00:32:04;;;;;;;7.18;5.68;;;;;;;9.37;100.00;99276.59;5070834;28;20204;-82
2024/04/01 00:34:29;;;;;;;6.00;5.40;;;;;;;9.39;100.00;99277.34;5053121;28;20251;-82
2024/04/01 00:36:54;;;;;;;5.60;5.10;;;;;;;9.38;100.00;99276.47;5063258;28;20344;-82
2024/04/01 00:39:20;;;;;;;5.60;5.07;;;;;;;9.39;100.00;99280.78;5074494;28;20127;-82
2024/04/01 00:41:45;;;;;;;5.95;5.25;;;;;;;9.40;100.00;99277.25;5067332;28;20260;-82
2024/04/01 00:44:10;;;;;;;6.25;5.63;;;;;;;9.40;100.00;99276.38;5057837;28;20043;-81
2024/04/01 00:46:36;;;;;;;5.93;5.43;;;;;;;9.38;100.00;99266.03;5069619;28;20331;-82
2024/04/01 00:49:01;;;;;;;6.07;5.57;;;;;;;9.38;100.00;99254.75;5056149;28;20200;-82
2024/04/01 00:51:27;;;;;;;5.50;5.10;;;;;;;9.38;100.00;99252.97;5055788;28;20335;-82
2024/04/01 00:53:54;;;;;;;6.45;5.03;;;;;;;9.39;100.00;99246.81;5060201;28;20328;-82
2024/04/01 00:56:22;;;;;;;4.93;4.53;;;;;;;9.38;100.00;99252.97;5055924;28;20357;-82
2024/04/01 00:58:50;;;;;;;5.38;4.88;;;;;;;9.37;100.00;99255.69;5071630;28;20033;-82
2024/04/01 01:01:16;;;;;;;5.47;4.75;;;;;;;9.35;100.00;99249.69;5067384;28;20029;-82
2024/04/01 01:03:42;;;;;;;5.30;4.80;;;;;;;9.32;100.00;99258.56;5058071;28;20320;-82
2024/04/01 01:06:20;;;;;;;5.82;5.22;;;;;;;9.27;100.00;99249.34;5069340;28;20032;-82
2024/04/01 01:08:45;;;;;;;6.70;5.17;;;;;;;9.25;100.00;99257.25;5041853;28;20064;-82
2024/04/01 01:11:12;;;;;;;9.68;5.35;;;;;;;9.21;100.00;99261.84;5066045;28;20287;-82
2024/04/01 01:13:38;;;;;;;5.20;4.70;;;;;;;9.17;100.00;99265.56;5066738;28;20037;-82
2024/04/01 01:16:03;;;;;;;6.68;4.75;;;;;;;9.16;100.00;99274.31;5055879;28;20043;-82
2024/04/01 01:18:29;;;;;;;5.30;4.80;;;;;;;9.12;100.00;99269.38;5061321;28;20388;-82
2024/04/01 01:20:54;;;;;;;6.53;5.20;;;;;;;9.09;100.00;99269.56;5075785;28;20040;-82
2024/04/01 01:23:19;;;;;;;7.05;5.00;;;;;;;9.05;100.00;99271.50;5073500;28;20047;-82
2024/04/01 01:25:45;;;;;;;5.75;5.25;;;;;;;9.05;100.00;99275.91;5070175;28;20036;-82
2024/04/01 01:28:10;;;;;;;5.88;5.05;;;;;;;9.03;100.00;99276.81;5062356;28;20040;-82
2024/04/01 01:30:35;;;;;;;6.68;5.65;;;;;;;8.99;100.00;99264.88;5074093;28;20032;-82
2024/04/01 01:33:04;;;;;;;5.70;5.20;;;;;;;8.98;100.00;99267.59;5064991;28;20051;-82
2024/04/01 01:35:30;;;;;;;;;;;;;;;8.96;100.00;99272.06;5072665;28;20052;-82
2024/04/01 01:37:57;;;;;;;6.93;4.90;;;;;;;8.93;100.00;99274.84;5073867;28;19966;-82
2024/04/01 01:40:22;;;;;;;5.18;4.68;;;;;;;8.90;100.00;99273.28;5071642;28;20032;-82
2024/04/01 01:42:48;;;;;;;5.25;4.75;;;;;;;8.86;100.00;99271.78;5075217;28;20277;-82
2024/04/01 01:45:14;;;;;;;5.07;4.68;;;;;;;8.81;100.00;99268.59;5064935;28;20428;-82
2024/04/01 01:47:39;;;;;;;5.57;5.18;;;;;;;8.79;100.00;99268.66;5075147;28;20040;-82
2024/04/01 01:50:06;;;;;;;5.93;4.88;;;;;;;8.77;100.00;99267.09;5068433;28;20044;-82
2024/04/01 01:52:32;;;;;;;6.10;4.60;;;;;;;8.74;100.00;99270.69;5074860;28;20231;-82
2024/04/01 01:54:58;;;;;;;5.15;4.68;;;;;;;8.70;100.00;99266.59;5066801;28;20083;-82
2024/04/01 01:57:24;;;;;;;4.88;4.38;;;;;;;8.67;100.00;99264.16;5074255;28;20044;-82
2024/04/01 01:59:49;;;;;;;4.90;4.50;;;;;;;8.66;100.00;99272.94;5074443;28;20040;-82
2024/04/01 02:02:16;;;;;;;4.47;4.18;;;;;;;8.63;100.00;99286.97;5069548;28;20040;-82
2024/04/01 02:04:41;;;;;;;5.32;4.93;;;;;;;8.59;100.00;99277.66;5070111;28;20354;-82
2024/04/01 02:07:07;;;;;;;5.20;4.80;;;;;;;8.57;100.00;99281.28;5043815;28;20036;-82
2024/04/01 02:09:33;;;;;;;6.38;4.82;;;;;;;8.55;100.00;99289.19;5063309;28;20237;-82
2024/04/01 02:11:59;;;;;;;7.55;4.95;;;;;;;8.50;100.00;99283.41;5073323;28;20040;-82
2024/04/01 02:14:25;;;;;;;5.43;4.93;;;;;;;8.44;100.00;99278.50;5061206;28;20063;-82
2024/04/01 02:16:52;;;;;;;4.97;4.53;;;;;;;8.42;100.00;99285.59;5063387;28;20049;-82
2024/04/01 02:19:17;;;;;;;4.75;4.38;;;;;;;8.38;100.00;99279.66;5061181;28;20087;-82
2024/04/01 02:21:45;;;;;;;5.30;4.13;;;;;;;8.35;100.00;99284.22;5069743;28;20044;-82
2024/04/01 02:24:11;;;;;;;4.70;4.30;;;;;;;8.35;100.00;99279.00;5077410;28;20036;-82
2024/04/01 02:26:37;;;;;;;4.85;4.43;;;;;;;8.34;100.00;99277.34;5081181;28;20369;-82
2024/04/01 02:29:02;;;;;;;5.32;4.82;;;;;;;8.34;100.00;99274.72;5079105;28;20032;-81
2024/04/01 02:31:28;;;;;;;4.78;4.38;;;;;;;8.35;100.00;99276.41;5067788;28;20044;-80
2024/04/01 02:33:53;;;;;;;4.53;4.22;;;;;;;8.36;100.00;99275.47;5062009;28;20045;-80
2024/04/01 02:36:19;;;;;;;4.90;4.47;;;;;;;8.34;100.00;99270.34;5058769;28;20040;-80
2024/04/01 02:38:50;;;;;;;4.25;3.95;;;;;;;8.34;100.00;99279.94;5079539;28;20032;-80
2024/04/01 02:41:15;;;;;;;4.40;4.10;;;;;;;8.34;100.00;99278.16;5072218;28;20037;-80
2024/04/01 02:43:43;;;;;;;4.50;4.20;;;;;;;8.32;100.00;99272.19;5060474;28;20131;-80
2024/04/01 02:46:08;;;;;;;4.32;3.92;;;;;;;8.36;100.00;99273.69;5062854;28;20043;-80
2024/04/01 02:48:33;;;;;;;6.40;4.30;;;;;;;8.36;100.00;99283.31;5063389;28;20039;-80
2024/04/01 02:50:59;;;;;;;4.72;3.95;;;;;;;8.37;100.00;99272.78;5079295;28;20032;-80
2024/04/01 02:53:24;;;;;;;4.72;4.10;;;;;;;8.40;100.00;99282.19;5078112;28;20041;-80
2024/04/01 02:55:50;;;;;;;5.20;4.03;;;;;;;8.40;100.00;99282.19;5061554;28;20043;-81
2024/04/01 02:58:15;;;;;;;4.80;4.40;;;;;;;8.39;100.00;99270.94;5042336;28;20206;-81
2024/04/01 03:00:45;;;;;;;4.40;4.10;;;;;;;8.42;100.00;99283.84;5080064;28;20040;-81
2024/04/01 03:03:11;;;;;;;4.25;3.85;;;;;;;8.43;100.00;99282.91;5061818;28;20363;-80
2024/04/01 03:05:38;;;;;;;4.15;3.85;;;;;;;8.42;100.00;99282.97;5061461;28;20294;-80
2024/04/01 03:08:04;;;;;;;4.78;3.92;;;;;;;8.43;100.00;99282.06;5072736;28;20205;-81
2024/04/01 03:10:30;;;;;;;4.88;4.40;;;;;;;8.42;100.00;99275.16;5078748;28;20233;-80
2024/04/01 03:12:55;;;;;;;5.10;4.57;;;;;;;8.42;100.00;99270.78;5065677;28;20045;-81
2024/04/01 03:15:20;;;;;;;4.85;4.45;;;;;;;8.44;100.00;99270.69;5056745;28;20096;-81
2024/04/01 03:17:46;;;;;;;5.03;4.10;;;;;;;8.45;100.00;99275.81;5058918;28;20228;-81
2024/04/01 03:20:12;;;;;;;4.22;3.92;;;;;;;8.47;100.00;99286.19;5076550;28;20095;-81
2024/04/01 03:22:39;;;;;;;4.07;3.67;;;;;;;8.49;100.00;99286.94;5066282;28;20040;-81
2024/04/01 03:25:04;;;;;;;4.35;4.05;;;;;;;8.51;100.00;99285.06;5069154;28;20055;-81
2024/04/01 03:27:30;;;;;;;4.10;3.70;;;;;;;8.51;100.00;99277.25;5061920;28;20037;-81
2024/04/01 03:29:56;;;;;;;4.25;3.78;;;;;;;8.51;100.00;99279.00;5058506;28;20040;-81
2024/04/01 03:32:21;;;;;;;4.30;3.90;;;;;;;8.53;100.00;99287.59;5043461;28;20089;-80
2024/04/01 03:34:48;;;;;;;4.03;3.72;;;;;;;8.52;100.00;99283.31;5078114;28;20032;-81
2024/04/01 03:37:14;;;;;;;5.03;4.10;;;;;;;8.54;100.00;99292.72;5075013;28;20024;-80
2024/04/01 03:39:43;;;;;;;6.05;3.88;;;;;;;8.54;100.00;99279.69;5059569;28;20081;-81
2024/04/01 03:42:10;;;;;;;4.13;3.80;;;;;;;8.55;100.00;99281.38;5075832;28;20033;-80
2024/04/01 03:44:35;;;;;;;4.30;3.90;;;;;;;8.55;100.00;99276.16;5055775;28;20036;-80
2024/04/01 03:47:01;;;;;;;4.20;3.90;;;;;;;8.57;100.00;99279.50;5068697;28;20040;-80
2024/04/01 03:49:26;;;;;;;4.20;3.80;;;;;;;8.58;100.00;99275.97;5072637;28;20043;-80
2024/04/01 03:51:51;;;;;;;3.92;3.63;;;;;;;8.57;100.00;99271.69;5075826;28;20028;-81
2024/04/01 03:54:16;;;;;;;4.70;4.30;;;;;;;8.56;100.00;99263.94;5065153;28;20040;-80
2024/04/01 03:56:42;;;;;;;4.03;3.72;;;;;;;8.53;100.00;99272.78;5058937;28;20043;-80
2024/04/01 03:59:08;;;;;;;4.03;3.72;;;;;;;8.56;100.00;99267.38;5047101;28;20355;-80
2024/04/01 04:01:34;;;;;;;5.10;3.28;;;;;;;8.57;100.00;99263.84;5056056;28;20067;-80
2024/04/01 04:03:59;;;;;;;4.00;3.60;;;;;;;8.58;100.00;99259.47;5069458;28;20044;-80
2024/04/01 04:06:25;;;;;;;3.65;3.33;;;;;;;8.59;100.00;99261.16;5058353;28;20028;-81
2024/04/01 04:08:50;;;;;;;3.72;3.42;;;;;;;8.58;100.00;99268.13;5074882;28;20074;-80
2024/04/01 04:11:15;;;;;;;4.25;3.83;;;;;;;8.58;100.00;99256.84;5076164;28;20044;-80
2024/04/01 04:13:41;;;;;;;4.22;3.83;;;;;;;8.58;100.00;99257.69;5076207;28;20040;-80
2024/04/01 04:16:06;;;;;;;4.45;3.63;;;;;;;8.58;100.00;99257.69;5076721;28;20225;-81
2024/04/01 04:18:31;;;;;;;4.13;3.83;;;;;;;8.57;100.00;99253.41;5069032;28;20025;-80
2024/04/01 04:20:57;;;;;;;5.70;4.78;;;;;;;8.54;100.00;99261.41;5072906;28;20040;-80
2024/04/01 04:23:27;;;;;;;4.40;4.00;;;;;;;8.55;100.00;99251.81;5052450;28;20028;-80
2024/04/01 04:25:53;;;;;;;4.88;3.90;;;;;;;8.55;100.00;99260.50;5064846;28;20039;-81
2024/04/01 04:28:20;;;;;;;3.70;3.40;;;;;;;8.56;100.00;99259.56;5071606;28;20032;-80
2024/04/01 04:30:45;;;;;;;3.80;3.50;;;;;;;8.56;100.00;99266.56;5069596;28;20028;-80
2024/04/01 04:33:10;;;;;;;4.10;3.70;;;;;;;8.55;100.00;99263.09;5071572;28;20079;-80
2024/04/01 04:35:36;;;;;;;5.25;3.65;;;;;;;8.53;100.00;99266.72;5065648;28;20033;-80
2024/04/01 04:38:02;;;;;;;4.07;3.78;;;;;;;8.53;100.00;99280.63;5059980;28;20021;-81
2024/04/01 04:40:27;;;;;;;4.20;3.88;;;;;;;8.50;100.00;99272.97;5057643;28;20041;-80
2024/04/01 04:42:53;;;;;;;4.78;4.38;;;;;;;8.48;100.00;99282.66;5056425;28;20095;-80
2024/04/01 04:45:22;;;;;;;3.95;3.70;;;;;;;8.47;100.00;99286.19;5069929;28;20028;-80
2024/04/01 04:47:50;;;;;;;5.07;4.03;;;;;;;8.46;100.00;99292.34;5057838;28;20373;-80
2024/04/01 04:50:16;;;;;;;4.60;4.20;;;;;;;8.45;100.00;99296.69;5062506;28;20377;-80
2024/04/01 04:52:41;;;;;;;4.35;3.95;;;;;;;8.43;100.00;99297.72;5066022;28;20070;-80
2024/04/01 04:55:07;;;;;;;4.50;4.18;;;;;;;8.42;100.00;99298.63;5064936;28;20037;-81
2024/04/01 04:57:33;;;;;;;4.80;4.50;;;;;;;8.40;100.00;99303.06;5055957;28;20039;-80
2024/04/01 04:59:58;;;;;;;5.78;5.28;;;;;;;8.39;100.00;99304.84;5064759;28;20044;-80
2024/04/01 05:02:23;;;;;;;5.43;4.93;;;;;;;8.40;100.00;99303.06;5066855;28;20308;-80
2024/04/01 05:04:49;;;;;;;6.80;6.20;;;;;;;8.39;100.00;99301.41;5063248;28;20093;-81
2024/04/01 05:07:15;;;;;;;7.13;5.60;;;;;;;8.40;100.00;99303.94;5073565;28;20024;-80
2024/04/01 05:09:40;;;;;;;5.68;5.18;;;;;;;8.40;100.00;99297.84;5067753;28;20043;-80
2024/04/01 05:12:06;;;;;;;6.43;5.82;;;;;;;8.39;100.00;99306.63;5069673;28;20063;-80
2024/04/01 05:14:32;;;;;;;6.18;5.68;;;;;;;8.40;100.00;99310.88;5069785;28;20062;-80
2024/04/01 05:16:57;;;;;;;8.52;6.15;;;;;;;8.40;100.00;99310.88;5041692;28;20059;-80
2024/04/01 05:19:22;;;;;;;6.65;6.07;;;;;;;8.39;100.00;99311.84;5075089;28;20036;-80
2024/04/01 05:21:49;;;;;;;7.05;6.35;;;;;;;8.37;100.00;99309.31;5058621;28;20029;-80
2024/04/01 05:24:17;;;;;;;7.18;6.57;;;;;;;8.37;100.00;99309.31;5066658;28;20039;-80
2024/04/01 05:26:43;;;;;;;7.00;6.30;;;;;;;8.40;100.00;99318.72;5075042;28;20403;-81
2024/04/01 05:29:08;;;;;;;6.75;6.15;;;;;;;8.39;100.00;99314.44;5057286;28;20063;-80
2024/04/01 05:31:35;;;;;;;7.38;6.60;;;;;;;8.41;100.00;99329.06;5067952;28;20127;-80
2024/04/01 05:34:01;;;;;;;8.20;7.15;;;;;;;8.39;100.00;99336.16;5065225;28;20037;-80
2024/04/01 05:36:28;;;;;;;8.50;6.82;;;;;;;8.41;100.00;99336.91;5064252;28;20319;-80
2024/04/01 05:38:54;;;;;;;7.32;6.63;;;;;;;8.43;100.00;99336.84;5071944;28;20107;-80
2024/04/01 05:41:21;;;;;;;6.57;6.00;;;;;;;8.47;100.00;99347.97;5066071;28;20086;-80
2024/04/01 05:43:47;;;;;;;10.30;7.60;;;;;;;8.44;100.00;99343.72;5063012;28;20063;-80
2024/04/01 05:46:13;;;;;;;7.85;7.00;;;;;;;8.44;100.00;99334.16;5072661;28;20055;-80
2024/04/01 05:48:38;;;;;;;8.55;6.68;;;;;;;8.47;100.00;99343.56;5063412;28;20036;-80
2024/04/01 05:51:03;;;;;;;9.43;7.10;;;;;;;8.48;100.00;99340.06;5058764;28;20077;-80
2024/04/01 05:53:29;;;;;;;10.70;8.43;;;;;;;8.43;100.00;99336.84;5061998;28;20179;-80
2024/04/01 05:55:55;;;;;;;8.02;7.30;;;;;;;8.47;100.00;99342.75;5053395;28;20035;-80
2024/04/01 05:58:20;;;;;;;8.77;7.70;;;;;;;8.47;100.00;99350.56;5054835;28;20048;-80
2024/04/01 06:00:45;;;;;;;8.65;7.75;;;;;;;8.48;100.00;99345.28;5057042;28;20047;-80
2024/04/01 06:03:11;;;;;;;7.90;7.20;;;;;;;8.51;100.00;99352.91;5064087;28;20028;-80
2024/04/01 06:05:36;;;;;;;9.27;7.32;;;;;;;8.51;100.00;99355.50;5063294;28;20028;-80
2024/04/01 06:08:02;;;;;;;8.25;7.47;;;;;;;8.52;100.00;99349.38;5060000;28;20051;-80
2024/04/01 06:10:28;;;;;;;7.72;7.03;;;;;;;8.55;100.00;99351.81;5056916;28;20135;-80
2024/04/01 06:12:54;;;;;;;6.78;6.20;;;;;;;8.55;100.00;99354.44;5064242;28;20099;-80
2024/04/01 06:15:20;;;;;;;8.02;7.25;;;;;;;8.56;100.00;99356.09;5060510;28;20041;-80
2024/04/01 06:17:45;;;;;;;9.80;8.80;;;;;;;8.50;100.00;99353.84;5057671;28;20043;-80
2024/04/01 06:20:10;;;;;;;8.73;7.90;;;;;;;8.51;100.00;99360.72;5071399;28;20073;-80
2024/04/01 06:22:37;;;;;;;9.07;8.13;;;;;;;8.47;100.00;99358.41;5045326;28;20037;-80
2024/04/01 06:25:03;;;;;;;7.85;7.10;;;;;;;8.52;100.00;99357.22;5074629;28;20028;-80
2024/04/01 06:27:29;;;;;;;9.20;7.80;;;;;;;8.55;100.00;99364.00;5053913;28;20339;-80
2024/04/01 06:29:55;;;;;;;8.27;7.50;;;;;;;8.55;100.00;99367.47;5054831;28;20074;-80
2024/04/01 06:32:20;;;;;;;9.52;8.52;;;;;;;8.55;100.00;99369.22;5072571;28;20087;-80
2024/04/01 06:34:50;;;;;;;8.27;7.47;;;;;;;8.57;100.00;99373.44;5074862;28;20111;-80
2024/04/01 06:37:15;;;;;;;10.20;8.45;;;;;;;8.56;100.00;99369.16;5074140;28;20232;-80
2024/04/01 06:39:41;;;;;;;9.93;8.43;;;;;;;8.54;100.00;99365.78;5062447;28;20056;-80
2024/04/01 06:42:06;;;;;;;8.32;7.55;;;;;;;8.59;100.00;99383.81;5037189;28;20234;-80
2024/04/01 06:44:31;;;;;;;10.90;8.48;;;;;;;8.58;100.00;99377.72;5052918;28;20032;-80
2024/04/01 06:46:57;;;;;;;8.05;7.35;;;;;;;8.59;100.00;99379.44;5054283;28;20025;-80
2024/04/01 06:49:22;;;;;;;9.73;8.13;;;;;;;8.61;100.00;99376.72;5057941;28;20217;-80
2024/04/01 06:51:47;;;;;;;8.27;7.40;;;;;;;8.60;100.00;99391.56;5074693;28;20037;-80
2024/04/01 06:54:13;;;;;;;8.40;7.70;;;;;;;8.62;100.00;99394.91;5076389;28;20020;-80
2024/04/01 06:56:38;;;;;;;7.95;6.78;;;;;;;8.64;100.00;99402.63;5068680;28;20327;-80
2024/04/01 06:59:03;;;;;;;11.35;7.30;;;;;;;8.65;100.00;99405.16;5063890;28;20351;-80
2024/04/01 07:01:29;;;;;;;8.48;7.78;;;;;;;8.60;100.00;99415.03;5069850;28;20044;-80
2024/04/01 07:03:54;;;;;;;8.25;7.45;;;;;;;8.60;100.00;99412.44;5072779;28;20039;-80
2024/04/01 07:06:20;;;;;;;10.02;7.43;;;;;;;8.62;100.00;99410.59;5068883;28;20036;-80
2024/04/01 07:08:45;;;;;;;11.38;7.85;;;;;;;8.64;100.00;99413.94;5046274;28;20488;-80
2024/04/01 07:11:10;;;;;;;8.50;7.20;;;;;;;8.62;100.00;99414.94;5072294;28;20389;-80
2024/04/01 07:13:36;;;;;;;7.97;7.18;;;;;;;8.64;100.00;99426.13;5042716;28;20063;-80
2024/04/01 07:16:01;;;;;;;7.68;7.00;;;;;;;8.65;100.00;99418.22;5076217;28;20100;-80
2024/04/01 07:18:28;;;;;;;8.57;6.85;;;;;;;8.68;100.00;99419.84;5075136;28;20036;-80
2024/04/01 07:20:53;;;;;;;7.47;6.78;;;;;;;8.66;100.00;99406.03;5060246;28;20040;-80
2024/04/01 07:23:19;;;;;;;9.00;6.78;;;;;;;8.70;100.00;99409.31;5069961;28;20221;-80
2024/04/01 07:25:45;;;;;;;7.00;6.40;;;;;;;8.69;100.00;99407.63;5059956;28;20079;-80
2024/04/01 07:28:10;;;;;;;7.47;6.78;;;;;;;8.72;100.00;99412.69;5072671;28;20107;-80
2024/04/01 07:30:36;;;;;;;7.18;6.57;;;;;;;8.75;100.00;99408.13;5059818;28;20036;-80
2024/04/01 07:33:01;;;;;;;8.35;7.03;;;;;;;8.77;100.00;99408.88;5059248;28;20344;-80
2024/04/01 07:35:27;;;;;;;7.45;6.80;;;;;;;8.79;100.00;99419.25;5076003;28;20101;-80
2024/04/01 07:37:52;;;;;;;7.10;6.60;;;;;;;8.82;100.00;99419.03;5076982;28;20032;-80
2024/04/01 07:40:17;;;;;;;7.22;6.53;;;;;;;8.88;100.00;99429.16;5065607;28;20236;-80
2024/04/01 07:42:45;;;;;;;7.38;6.70;;;;;;;8.89;100.00;99430.84;5060861;28;20036;-80
2024/04/01 07:45:13;;;;;;;10.70;6.78;;;;;;;8.86;100.00;99428.41;5076352;28;20299;-80
2024/04/01 07:47:39;;;;;;;7.47;6.75;;;;;;;8.88;100.00;99423.94;5076416;28;20036;-80
2024/04/01 07:50:05;;;;;;;8.30;6.25;;;;;;;8.92;100.00;99437.66;5070892;28;20094;-80
2024/04/01 07:52:31;;;;;;;6.80;6.20;;;;;;;8.91;100.00;99444.63;5056304;28;20545;-80
2024/04/01 07:54:57;;;;;;;6.65;6.15;;;;;;;8.95;100.00;99451.41;5056471;28;20033;-80
2024/04/01 07:57:30;;;;;;;5.82;5.43;;;;;;;8.97;100.00;99454.75;5055970;28;20300;-80
2024/04/01 07:59:55;;;;;;;6.22;5.63;;;;;;;9.02;100.00;99465.78;5059642;28;20331;-80
2024/04/01 08:02:21;;;;;;;7.82;5.75;;;;;;;9.00;100.00;99465.03;5056905;28;20036;-80
2024/04/01 08:04:46;;;;;;;7.35;6.05;;;;;;;9.01;100.00;99473.72;5063709;28;20329;-80
2024/04/01 08:07:11;;;;;;;8.38;5.22;;;;;;;9.01;100.00;99465.88;5063546;28;20036;-79
2024/04/01 08:09:37;;;;;;;5.75;5.18;;;;;;;9.05;100.00;99471.78;5044941;28;20044;-80
2024/04/01 08:12:02;;;;;;;5.32;4.93;;;;;;;9.07;100.00;99480.34;5063560;28;20036;-80
2024/04/01 08:14:28;;;;;;;5.30;4.68;;;;;;;9.13;100.00;99472.16;5060516;28;20028;-80
2024/04/01 08:16:53;;;;;;;6.10;4.88;;;;;;;9.15;100.00;99478.13;5064512;28;20032;-80
2024/04/01 08:19:18;;;;;;;4.88;4.53;;;;;;;9.17;100.00;99474.53;5064043;28;20032;-80
2024/04/01 08:21:44;;;;;;;4.88;4.40;;;;;;;9.21;100.00;99472.59;5059287;28;20067;-80
2024/04/01 08:24:09;;;;;;;5.07;4.68;;;;;;;9.23;100.00;99484.63;5061491;28;20036;-80
2024/04/01 08:26:34;;;;;;;5.05;4.65;;;;;;;9.23;100.00;99489.84;5056226;28;20040;-80
2024/04/01 08:29:00;;;;;;;4.55;4.20;;;;;;;9.26;100.00;99487.97;5057924;28;20024;-80
2024/04/01 08:31:25;;;;;;;4.35;4.00;;;;;;;9.27;100.00;99494.91;5059933;28;20036;-80
2024/04/01 08:33:51;;;;;;;9.35;4.50;;;;;;;9.25;100.00;99494.97;5068509;28;20035;-79
2024/04/01 08:36:19;;;;;;;6.45;4.07;;;;;;;9.27;100.00;99493.13;5062130;28;20036;-80
2024/04/01 08:38:44;;;;;;;4.30;3.83;;;;;;;9.27;100.00;99494.91;5067015;28;20028;-82
2024/04/01 08:41:28;;;;;;;6.32;4.25;;;;;;;9.26;100.00;99504.53;5049602;28;20347;-81
2024/04/01 08:44:13;;;;;;;8.00;4.78;;;;;;;9.20;100.00;99505.72;5068313;28;20032;-81
2024/04/01 08:46:40;;;;;;;5.18;4.60;;;;;;;9.20;100.00;99507.47;5062646;28;20072;-82
2024/04/01 08:49:10;;;;;;;5.05;4.63;;;;;;;9.23;100.00;99509.91;5069017;28;20458;-81
2024/04/01 08:51:37;;;;;;;6.07;5.43;;;;;;;9.25;100.00;99510.66;5051224;28;20094;-81
2024/04/01 08:54:03;;;;;;;5.95;5.35;;;;;;;9.26;100.00;99514.09;5065078;28;20040;-81
2024/04/01 08:56:30;;;;;;;5.80;5.22;;;;;;;9.27;100.00;99524.47;5063076;28;20279;-81
2024/04/01 08:58:56;;;;;;;8.85;5.40;;;;;;;9.27;100.00;99524.47;5064924;28;20056;-81
2024/04/01 09:01:21;;;;;;;7.72;5.40;;;;;;;9.28;100.00;99523.56;5067319;28;20051;-81
2024/04/01 09:03:48;;;;;;;8.95;5.68;;;;;;;9.32;100.00;99529.44;5063418;28;20059;-81
2024/04/01 09:06:15;;;;;;;7.03;6.35;;;;;;;9.34;100.00;99532.81;5060479;28;20035;-82
2024/04/01 09:08:40;;;;;;;11.10;6.60;;;;;;;9.39;100.00;99534.25;5064883;28;20360;-81
2024/04/01 09:11:06;;;;;;;8.32;6.40;;;;;;;9.43;100.00;99539.31;5048436;28;20056;-81
2024/04/01 09:13:32;;;;;;;6.50;5.90;;;;;;;9.44;100.00;99541.84;5042095;28;20037;-81
2024/04/01 09:15:58;;;;;;;6.38;4.95;;;;;;;9.45;100.00;99540.06;5041890;28;20040;-81
2024/04/01 09:18:23;;;;;;;7.22;4.40;;;;;;;9.43;100.00;99547.97;5039463;28;20101;-82
2024/04/01 09:20:49;;;;;;;8.65;4.50;;;;;;;9.46;100.00;99546.94;5030492;28;20033;-81
2024/04/01 09:23:14;;;;;;;7.32;3.92;;;;;;;9.48;100.00;99555.53;5041998;28;20317;-81
2024/04/01 09:25:39;;;;;;;4.22;3.00;;;;;;;9.45;100.00;99553.13;5040589;28;20035;-81
2024/04/01 09:28:05;;;;;;;7.95;3.30;;;;;;;9.47;100.00;99546.88;5042474;28;20116;-82
2024/04/01 09:30:31;;;;;;;10.55;3.80;;;;;;;9.43;100.00;99544.53;5039245;28;20049;-82
2024/04/01 09:32:56;;;;;;;9.30;2.83;;;;;;;9.44;100.00;99556.66;5043259;28;20435;-81
2024/04/01 09:35:23;;;;;;;6.90;3.10;;;;;;;9.46;100.00;99558.25;5044388;28;20032;-81
2024/04/01 09:37:51;;;;;;;13.60;3.47;;;;;;;9.48;100.00;99555.53;5040356;28;20036;-81
2024/04/01 09:40:18;;;;;;;4.93;2.70;;;;;;;9.51;100.00;99563.22;5042833;28;20041;-81
2024/04/01 09:42:45;;;;;;;10.88;3.20;;;;;;;9.54;100.00;99574.34;5041287;28;20045;-82
2024/04/01 09:45:11;;;;;;;8.98;2.90;;;;;;;9.58;100.00;99577.63;5030330;28;20025;-81
2024/04/01 09:47:40;;;;;;;10.50;3.10;;;;;;;9.57;100.00;99576.78;5039184;28;20052;-82
2024/04/01 09:50:07;;;;;;;5.32;2.75;;;;;;;9.53;100.00;99570.06;5047199;28;20052;-81
2024/04/01 09:52:36;;;;;;;10.15;2.97;;;;;;;9.53;100.00;99584.88;5038961;28;20064;-82
2024/04/01 09:55:12;;;;;;;9.43;2.65;;;;;;;9.54;100.00;99570.88;5043194;28;20097;-82
2024/04/01 09:57:46;;;;;;;11.27;2.60;;;;;;;9.56;100.00;99580.31;5042992;28;20271;-81
2024/04/01 10:00:16;;;;;;;6.88;3.25;;;;;;;9.53;100.00;99577.91;5046054;28;20036;-82
2024/04/01 10:02:59;;;;;;;6.93;2.40;;;;;;;9.57;100.00;99595.09;5050433;28;20032;-81
2024/04/01 10:06:02;;;;;;;7.00;2.70;;;;;;;9.58;100.00;99580.22;5049124;28;20044;-81
2024/04/01 10:08:40;;;;;;;10.05;2.78;;;;;;;9.60;100.00;99583.59;5030801;28;20041;-81
2024/04/01 10:11:26;;;;;;;9.38;2.90;;;;;;;9.57;100.00;99576.78;5070845;28;20096;-81
2024/04/01 10:14:14;;;;;;;6.25;2.80;;;;;;;9.56;100.00;99577.69;5073704;28;20324;-80
2024/04/01 10:16:58;;;;;;;9.13;3.00;;;;;;;9.54;100.00;99576.94;5073740;28;20028;-81
2024/04/01 10:19:37;;;;;;;7.10;3.25;;;;;;;9.55;100.00;99575.16;5062359;28;20287;-81
2024/04/01 10:22:38;;;;;;;9.75;3.80;;;;;;;9.53;100.00;99584.88;5063590;28;20341;-82
2024/04/01 10:25:15;;;;;;;8.95;3.17;;;;;;;9.54;100.00;99586.56;5081389;28;20043;-82
2024/04/01 10:28:04;;;;;;;7.47;2.92;;;;;;;9.54;100.00;99590.03;5068587;28;20039;-81
2024/04/01 10:31:04;;;;;;;5.78;2.83;;;;;;;9.54;100.00;99595.25;5078923;28;20031;-82
2024/04/01 10:33:42;;;;;;;6.43;3.03;;;;;;;9.61;100.00;99593.97;5060363;28;20021;-82
2024/04/01 10:36:32;;;;;;;3.90;3.50;;;;;;;9.60;100.00;99597.53;5078856;28;20032;-81
2024/04/01 10:39:14;;;;;;;10.65;3.53;;;;;;;9.64;100.00;99590.38;5057782;28;20031;-82
2024/04/01 10:41:42;;;;;;;6.53;3.58;;;;;;;9.69;100.00;99596.16;5064091;28;20031;-81
2024/04/01 10:44:37;;;;;;;11.80;3.88;;;;;;;9.70;100.00;99591.78;5064510;28;20044;-81
2024/04/01 10:47:08;;;;;;;7.07;3.25;;;;;;;9.71;100.00;99593.44;5072863;28;20045;-82
2024/04/01 10:50:13;;;;;;;4.00;2.72;;;;;;;9.74;100.00;99601.97;5086434;28;20033;-82
2024/04/01 10:53:15;;;;;;;6.50;3.08;;;;;;;9.77;100.00;99607.03;5030010;28;20050;-81
2024/04/01 10:55:50;;;;;;;7.22;3.60;;;;;;;9.71;100.00;99616.97;5029878;28;20699;-81
2024/04/01 10:58:52;;;;;;;10.35;3.10;;;;;;;9.76;100.00;99628.03;5029503;28;20045;-81
2024/04/01 11:01:36;;;;;;;8.23;3.00;;;;;;;9.80;100.00;99635.63;5029285;28;20049;-81
2024/04/01 11:04:01;;;;;;;5.57;2.50;;;;;;;9.84;100.00;99627.59;5030506;28;20057;-81
2024/04/01 11:06:26;;;;;;;7.85;2.92;;;;;;;9.79;100.00;99638.31;5014748;28;20403;-81
2024/04/01 11:09:12;;;;;;;6.25;2.33;;;;;;;9.83;100.00;99634.59;5019804;28;20272;-81
2024/04/01 11:11:56;;;;;;;14.57;3.80;;;;;;;9.82;100.00;99630.28;5028963;28;20050;-82
2024/04/01 11:14:22;;;;;;;5.25;2.10;;;;;;;9.83;100.00;99642.44;5020401;28;20033;-82
2024/04/01 11:16:53;;;;;;;5.90;1.80;;;;;;;9.84;100.00;99645.88;5015667;28;20026;-82
2024/04/01 11:19:44;;;;;;;7.32;2.25;;;;;;;9.84;100.00;99644.13;5043825;28;20016;-82
2024/04/01 11:22:17;;;;;;;5.13;2.10;;;;;;;9.87;100.00;99658.78;5003607;28;20105;-82
2024/04/01 11:25:18;;;;;;;4.97;1.95;;;;;;;9.93;100.00;99663.66;5079013;28;20048;-82
2024/04/01 11:28:05;;;;;;;6.13;2.00;;;;;;;9.87;100.00;99664.03;5066480;28;20029;-82
2024/04/01 11:30:35;;;;;;;6.32;1.92;;;;;;;9.85;100.00;99658.88;5081823;28;20036;-81
2024/04/01 11:33:13;;;;;;;10.70;1.90;;;;;;;9.90;100.00;99674.31;5064533;28;20036;-81
2024/04/01 11:35:51;;;;;;;4.63;1.92;;;;;;;9.93;100.00;99671.50;5077812;28;20029;-81
2024/04/01 11:38:56;;;;;;;4.32;1.20;;;;;;;9.94;100.00;99671.44;5059701;28;20017;-81